createdAt,value
2018-11-11T00:00:04.295Z,94.30
2018-11-11T00:01:04.293Z,97.00
2018-11-11T00:02:04.278Z,103.20
2018-11-11T00:03:04.261Z,104.70
2018-11-11T00:04:04.269Z,117.90
2018-11-11T00:05:04.248Z,108.30
2018-11-11T00:06:04.238Z,118.80
2018-11-11T00:07:04.222Z,113.40
2018-11-11T00:08:04.226Z,119.80
2018-11-11T00:09:04.246Z,106.20
2018-11-11T00:10:04.185Z,108.90
2018-11-11T00:11:04.206Z,105.30
2018-11-11T00:12:04.169Z,124.90
2018-11-11T00:13:04.157Z,119.20
2018-11-11T00:14:04.216Z,116.30
2018-11-11T00:15:04.146Z,108.20
2018-11-11T00:16:04.155Z,126.80
2018-11-11T00:17:04.125Z,146.10
2018-11-11T00:18:04.100Z,147.50
2018-11-11T00:19:04.090Z,145.60
2018-11-11T00:20:04.073Z,111.50
2018-11-11T00:21:04.067Z,121.20
2018-11-11T00:22:04.058Z,125.20
2018-11-11T00:23:04.046Z,104.00
2018-11-11T00:24:04.033Z,108.20
2018-11-11T00:25:04.022Z,99.80
2018-11-11T00:26:04.001Z,94.80
2018-11-11T00:27:04.014Z,97.40
2018-11-11T00:28:03.980Z,95.00
2018-11-11T00:29:03.972Z,91.10
2018-11-11T00:30:03.964Z,83.70
2018-11-11T00:31:03.978Z,94.50
2018-11-11T00:32:04.031Z,82.90
2018-11-11T00:33:03.934Z,85.20
2018-11-11T00:34:03.971Z,87.50
2018-11-11T00:35:03.913Z,85.40
2018-11-11T00:36:03.899Z,90.40
2018-11-11T00:37:03.883Z,90.10
2018-11-11T00:38:03.890Z,95.40
2018-11-11T00:39:03.857Z,93.60
2018-11-11T00:40:03.876Z,97.10
2018-11-11T00:41:03.848Z,97.00
2018-11-11T00:42:03.833Z,96.40
2018-11-11T00:43:03.842Z,96.60
2018-11-11T00:44:03.813Z,96.20
2018-11-11T00:45:03.791Z,96.00
2018-11-11T00:46:03.782Z,101.40
2018-11-11T00:47:03.780Z,100.90
2018-11-11T00:48:03.763Z,90.90
2018-11-11T00:49:03.756Z,101.70
2018-11-11T00:50:03.755Z,94.70
2018-11-11T00:51:03.734Z,92.90
2018-11-11T00:52:03.717Z,94.00
2018-11-11T00:53:03.702Z,88.60
2018-11-11T00:54:03.700Z,92.10
2018-11-11T00:55:03.685Z,102.90
2018-11-11T00:56:03.668Z,100.80
2018-11-11T00:57:03.661Z,96.50
2018-11-11T00:58:03.649Z,103.00
2018-11-11T00:59:03.662Z,106.70
2018-11-11T01:00:03.627Z,107.30
2018-11-11T01:01:03.619Z,116.80
2018-11-11T01:02:03.630Z,107.40
2018-11-11T01:03:03.593Z,108.40
2018-11-11T01:04:03.603Z,109.70
2018-11-11T01:05:03.576Z,110.50
2018-11-11T01:06:03.559Z,111.50
2018-11-11T01:07:03.549Z,113.20
2018-11-11T01:08:03.576Z,109.10
2018-11-11T01:09:03.534Z,114.40
2018-11-11T01:10:03.532Z,109.40
2018-11-11T01:11:03.507Z,118.70
2018-11-11T01:12:03.526Z,118.50
2018-11-11T01:13:03.489Z,120.50
2018-11-11T01:14:03.475Z,120.50
2018-11-11T01:15:03.487Z,127.80
2018-11-11T01:16:03.476Z,119.70
2018-11-11T01:17:03.446Z,128.00
2018-11-11T01:18:03.433Z,139.60
2018-11-11T01:19:03.423Z,136.80
2018-11-11T01:20:03.429Z,122.90
2018-11-11T01:21:03.428Z,124.60
2018-11-11T01:22:03.391Z,117.70
2018-11-11T01:23:03.390Z,125.50
2018-11-11T01:24:03.362Z,129.50
2018-11-11T01:25:03.350Z,115.60
2018-11-11T01:26:03.348Z,112.80
2018-11-11T01:27:03.329Z,102.10
2018-11-11T01:28:03.327Z,103.60
2018-11-11T01:29:03.326Z,107.90
2018-11-11T01:30:03.293Z,113.40
2018-11-11T01:31:03.303Z,107.00
2018-11-11T01:32:03.273Z,103.20
2018-11-11T01:33:03.258Z,97.80
2018-11-11T01:34:03.257Z,93.90
2018-11-11T01:35:03.246Z,87.40
2018-11-11T01:36:03.237Z,86.80
2018-11-11T01:37:03.224Z,93.60
2018-11-11T01:38:03.205Z,95.00
2018-11-11T01:39:03.194Z,92.60
2018-11-11T01:40:03.197Z,81.20
2018-11-11T01:41:03.194Z,87.50
2018-11-11T01:42:03.175Z,82.70
2018-11-11T01:43:03.152Z,86.80
2018-11-11T01:44:03.148Z,83.30
2018-11-11T01:45:03.132Z,81.30
2018-11-11T01:46:03.135Z,81.20
2018-11-11T01:47:03.123Z,80.70
2018-11-11T01:48:03.093Z,79.70
2018-11-11T01:49:03.098Z,72.10
2018-11-11T01:50:03.068Z,71.80
2018-11-11T01:51:03.066Z,72.50
2018-11-11T01:52:03.051Z,72.80
2018-11-11T01:53:03.046Z,70.70
2018-11-11T01:54:03.028Z,73.50
2018-11-11T01:55:03.023Z,76.80
2018-11-11T01:56:03.005Z,71.50
2018-11-11T01:57:02.991Z,73.10
2018-11-11T01:58:03.013Z,72.40
2018-11-11T01:59:02.985Z,69.00
2018-11-11T02:00:02.961Z,75.90
2018-11-11T02:01:02.999Z,80.20
2018-11-11T02:02:02.938Z,77.30
2018-11-11T02:03:02.935Z,77.90
2018-11-11T02:04:02.918Z,86.00
2018-11-11T02:05:02.925Z,85.20
2018-11-11T02:06:02.895Z,71.90
2018-11-11T02:07:02.885Z,73.80
2018-11-11T02:08:02.883Z,77.20
2018-11-11T02:09:02.863Z,82.00
2018-11-11T02:10:02.861Z,80.60
2018-11-11T02:11:02.855Z,76.00
2018-11-11T02:12:02.827Z,73.80
2018-11-11T02:13:02.826Z,71.10
2018-11-11T02:14:02.814Z,70.20
2018-11-11T02:15:02.795Z,65.30
2018-11-11T02:16:02.783Z,62.20
2018-11-11T02:17:02.767Z,60.70
2018-11-11T02:18:02.755Z,54.10
2018-11-11T02:19:02.752Z,53.60
2018-11-11T02:20:02.737Z,52.30
2018-11-11T02:21:02.762Z,53.80
2018-11-11T02:22:02.723Z,51.20
2018-11-11T02:23:02.718Z,47.80
2018-11-11T02:24:02.716Z,48.60
2018-11-11T02:25:02.717Z,51.00
2018-11-11T02:26:02.670Z,51.70
2018-11-11T02:27:02.656Z,52.60
2018-11-11T02:28:02.653Z,54.30
2018-11-11T02:29:02.644Z,51.40
2018-11-11T02:30:02.664Z,46.10
2018-11-11T02:31:02.622Z,48.40
2018-11-11T02:32:02.607Z,49.20
2018-11-11T02:33:02.620Z,47.30
2018-11-11T02:34:02.595Z,41.20
2018-11-11T02:35:02.581Z,41.00
2018-11-11T02:36:02.562Z,40.00
2018-11-11T02:37:02.549Z,44.90
2018-11-11T02:38:02.543Z,42.00
2018-11-11T02:39:02.530Z,43.30
2018-11-11T02:40:02.535Z,44.20
2018-11-11T02:41:02.533Z,45.90
2018-11-11T02:42:02.497Z,43.00
2018-11-11T02:43:02.484Z,42.90
2018-11-11T02:44:02.480Z,45.00
2018-11-11T02:45:02.459Z,40.60
2018-11-11T02:46:02.461Z,41.80
2018-11-11T02:47:02.443Z,44.10
2018-11-11T02:48:02.422Z,42.70
2018-11-11T02:49:02.416Z,42.40
2018-11-11T02:50:02.412Z,41.90
2018-11-11T02:51:02.402Z,44.10
2018-11-11T02:52:02.384Z,41.00
2018-11-11T02:53:02.373Z,43.10
2018-11-11T02:54:02.368Z,42.80
2018-11-11T02:55:02.362Z,46.60
2018-11-11T02:56:02.342Z,42.90
2018-11-11T02:57:02.321Z,43.30
2018-11-11T02:58:02.330Z,48.00
2018-11-11T02:59:02.307Z,50.90
2018-11-11T03:00:02.322Z,53.60
2018-11-11T03:01:02.297Z,49.10
2018-11-11T03:02:02.298Z,52.10
2018-11-11T03:03:02.260Z,55.30
2018-11-11T03:04:02.247Z,64.40
2018-11-11T03:05:02.235Z,63.40
2018-11-11T03:06:02.239Z,53.60
2018-11-11T03:07:02.236Z,60.50
2018-11-11T03:08:02.204Z,57.60
2018-11-11T03:09:02.189Z,62.30
2018-11-11T03:10:02.183Z,56.00
2018-11-11T03:11:02.171Z,58.40
2018-11-11T03:12:02.196Z,60.40
2018-11-11T03:13:02.150Z,59.70
2018-11-11T03:14:02.138Z,58.30
2018-11-11T03:15:02.139Z,60.20
2018-11-11T03:16:02.118Z,63.80
2018-11-11T03:17:02.114Z,63.30
2018-11-11T03:18:02.089Z,73.50
2018-11-11T03:19:02.084Z,70.60
2018-11-11T03:20:02.067Z,62.50
2018-11-11T03:21:02.054Z,60.70
2018-11-11T03:22:02.066Z,64.20
2018-11-11T03:23:02.039Z,64.50
2018-11-11T03:24:02.024Z,59.90
2018-11-11T03:25:02.016Z,64.30
2018-11-11T03:26:02.019Z,72.40
2018-11-11T03:27:01.997Z,68.40
2018-11-11T03:28:01.990Z,63.20
2018-11-11T03:29:01.969Z,71.10
2018-11-11T03:30:01.963Z,73.60
2018-11-11T03:31:01.952Z,73.40
2018-11-11T03:32:01.940Z,79.20
2018-11-11T03:33:01.928Z,77.90
2018-11-11T03:34:01.920Z,85.20
2018-11-11T03:35:01.934Z,76.20
2018-11-11T03:36:01.893Z,97.10
2018-11-11T03:37:01.884Z,86.60
2018-11-11T03:38:01.895Z,79.30
2018-11-11T03:39:01.859Z,75.40
2018-11-11T03:40:01.855Z,77.40
2018-11-11T03:41:01.832Z,77.20
2018-11-11T03:42:01.828Z,75.30
2018-11-11T03:43:01.818Z,77.10
2018-11-11T03:44:01.809Z,74.90
2018-11-11T03:45:01.814Z,87.00
2018-11-11T03:46:01.788Z,75.20
2018-11-11T03:47:01.845Z,78.90
2018-11-11T03:48:01.765Z,73.30
2018-11-11T03:49:01.763Z,80.00
2018-11-11T03:50:01.736Z,75.00
2018-11-11T03:51:01.737Z,95.90
2018-11-11T03:52:01.719Z,81.40
2018-11-11T03:53:01.711Z,91.10
2018-11-11T03:54:01.709Z,81.40
2018-11-11T03:55:01.697Z,84.70
2018-11-11T03:56:01.681Z,86.20
2018-11-11T03:57:01.674Z,74.90
2018-11-11T03:58:01.645Z,77.70
2018-11-11T03:59:01.635Z,76.50
2018-11-11T04:00:01.670Z,74.70
2018-11-11T04:01:01.680Z,73.20
2018-11-11T04:02:01.598Z,77.10
2018-11-11T04:03:01.599Z,83.10
2018-11-11T04:04:01.587Z,75.70
2018-11-11T04:05:01.584Z,75.30
2018-11-11T04:06:01.558Z,75.40
2018-11-11T04:07:01.552Z,80.30
2018-11-11T04:08:01.553Z,86.00
2018-11-11T04:09:01.528Z,74.00
2018-11-11T04:10:01.579Z,75.20
2018-11-11T04:11:01.505Z,70.30
2018-11-11T04:12:01.508Z,79.90
2018-11-11T04:13:01.487Z,75.40
2018-11-11T04:14:01.469Z,72.80
2018-11-11T04:15:01.455Z,73.80
2018-11-11T04:16:01.445Z,74.00
2018-11-11T04:17:01.437Z,84.40
2018-11-11T04:18:01.419Z,84.80
2018-11-11T04:19:01.416Z,89.30
2018-11-11T04:20:01.405Z,78.90
2018-11-11T04:21:01.437Z,71.10
2018-11-11T04:22:01.391Z,68.40
2018-11-11T04:23:01.384Z,69.70
2018-11-11T04:24:01.353Z,71.50
2018-11-11T04:25:01.349Z,74.30
2018-11-11T04:26:01.345Z,68.90
2018-11-11T04:27:01.451Z,70.30
2018-11-11T04:28:01.321Z,75.30
2018-11-11T04:29:01.303Z,86.60
2018-11-11T04:30:01.294Z,78.20
2018-11-11T04:31:01.295Z,80.60
2018-11-11T04:32:01.273Z,79.20
2018-11-11T04:33:01.259Z,75.50
2018-11-11T04:34:01.255Z,74.70
2018-11-11T04:35:01.244Z,79.10
2018-11-11T04:36:01.270Z,84.90
2018-11-11T04:37:01.240Z,77.20
2018-11-11T04:38:01.204Z,77.10
2018-11-11T04:39:01.199Z,73.40
2018-11-11T04:40:01.196Z,78.40
2018-11-11T04:41:01.176Z,81.50
2018-11-11T04:42:01.175Z,82.40
2018-11-11T04:43:01.152Z,78.10
2018-11-11T04:44:01.135Z,74.20
2018-11-11T04:45:01.139Z,75.50
2018-11-11T04:46:01.113Z,81.50
2018-11-11T04:47:01.106Z,79.20
2018-11-11T04:48:01.106Z,74.90
2018-11-11T04:49:01.078Z,75.10
2018-11-11T04:50:01.070Z,77.10
2018-11-11T04:51:01.057Z,70.70
2018-11-11T04:52:01.049Z,74.40
2018-11-11T04:53:01.055Z,72.70
2018-11-11T04:54:01.027Z,76.20
2018-11-11T04:55:08.080Z,71.20
2018-11-11T04:56:08.060Z,72.30
2018-11-11T04:57:08.068Z,69.20
2018-11-11T04:58:08.399Z,70.10
2018-11-11T04:59:00.964Z,70.60
2018-11-11T05:00:00.957Z,68.00
2018-11-11T05:01:00.946Z,66.30
2018-11-11T05:02:00.931Z,62.50
2018-11-11T05:03:00.922Z,64.50
2018-11-11T05:04:00.914Z,73.20
2018-11-11T05:05:00.902Z,69.40
2018-11-11T05:06:00.888Z,69.90
2018-11-11T05:07:00.882Z,70.10
2018-11-11T05:08:00.873Z,62.90
2018-11-11T05:09:00.877Z,67.50
2018-11-11T05:10:00.845Z,65.40
2018-11-11T05:11:00.830Z,59.20
2018-11-11T05:12:00.840Z,60.70
2018-11-11T05:13:00.808Z,57.50
2018-11-11T05:14:00.825Z,60.60
2018-11-11T05:15:00.781Z,59.60
2018-11-11T05:16:00.786Z,66.20
2018-11-11T05:17:00.775Z,56.70
2018-11-11T05:18:00.749Z,58.60
2018-11-11T05:19:00.778Z,57.80
2018-11-11T05:20:00.735Z,64.30
2018-11-11T05:21:00.713Z,60.70
2018-11-11T05:22:00.828Z,58.90
2018-11-11T05:23:00.702Z,58.00
2018-11-11T05:24:00.689Z,62.70
2018-11-11T05:25:00.686Z,62.00
2018-11-11T05:26:00.664Z,65.60
2018-11-11T05:27:00.646Z,65.10
2018-11-11T05:28:00.637Z,65.70
2018-11-11T05:29:00.633Z,62.90
2018-11-11T05:30:00.631Z,61.00
2018-11-11T05:31:00.634Z,62.00
2018-11-11T05:32:00.608Z,63.80
2018-11-11T05:33:00.594Z,65.10
2018-11-11T05:34:00.585Z,64.20
2018-11-11T05:35:00.588Z,63.10
2018-11-11T05:36:00.597Z,64.50
2018-11-11T05:37:00.541Z,60.80
2018-11-11T05:38:00.531Z,66.40
2018-11-11T05:39:00.540Z,66.00
2018-11-11T05:40:00.506Z,59.00
2018-11-11T05:41:00.497Z,55.30
2018-11-11T05:42:00.494Z,65.70
2018-11-11T05:43:00.472Z,57.00
2018-11-11T05:44:00.474Z,64.10
2018-11-11T05:45:00.452Z,58.00
2018-11-11T05:46:00.438Z,55.30
2018-11-11T05:47:00.434Z,61.00
2018-11-11T05:48:00.426Z,54.90
2018-11-11T05:49:00.407Z,60.30
2018-11-11T05:50:00.402Z,62.00
2018-11-11T05:51:00.406Z,56.20
2018-11-11T05:52:00.374Z,55.60
2018-11-11T05:53:00.381Z,59.00
2018-11-11T05:54:00.351Z,55.80
2018-11-11T05:55:00.339Z,60.70
2018-11-11T05:56:00.336Z,62.20
2018-11-11T05:57:00.325Z,59.80
2018-11-11T05:58:00.304Z,62.60
2018-11-11T05:59:00.305Z,65.60
2018-11-11T06:00:00.304Z,69.40
2018-11-11T06:01:00.277Z,71.00
2018-11-11T06:02:00.285Z,64.70
2018-11-11T06:03:00.260Z,68.20
2018-11-11T06:04:00.245Z,67.60
2018-11-11T06:05:00.271Z,63.90
2018-11-11T06:06:00.213Z,67.00
2018-11-11T06:07:00.229Z,66.00
2018-11-11T06:08:00.209Z,65.40
2018-11-11T06:09:00.186Z,62.50
2018-11-11T06:10:00.177Z,63.60
2018-11-11T06:11:00.170Z,57.40
2018-11-11T06:12:00.156Z,52.60
2018-11-11T06:13:00.176Z,57.20
2018-11-11T06:14:00.139Z,53.00
2018-11-11T06:15:00.128Z,54.00
2018-11-11T06:16:00.102Z,56.00
2018-11-11T06:17:00.104Z,50.70
2018-11-11T06:18:00.107Z,53.80
2018-11-11T06:19:00.069Z,59.90
2018-11-11T06:20:00.072Z,61.70
2018-11-11T06:21:00.087Z,64.20
2018-11-11T06:22:00.038Z,63.70
2018-11-11T06:23:00.103Z,60.80
2018-11-11T06:24:00.018Z,67.20
2018-11-11T06:25:00.016Z,64.00
2018-11-11T06:26:00.016Z,72.10
2018-11-11T06:26:59.993Z,72.60
2018-11-11T06:27:59.992Z,72.70
2018-11-11T06:28:59.991Z,66.10
2018-11-11T06:29:59.959Z,70.10
2018-11-11T06:30:59.948Z,71.70
2018-11-11T06:31:59.926Z,74.40
2018-11-11T06:32:59.919Z,71.10
2018-11-11T06:33:59.959Z,75.80
2018-11-11T06:34:59.924Z,65.10
2018-11-11T06:35:59.904Z,67.10
2018-11-11T06:36:59.872Z,59.60
2018-11-11T06:37:59.872Z,70.00
2018-11-11T06:38:59.967Z,56.50
2018-11-11T06:39:59.860Z,61.80
2018-11-11T06:40:59.831Z,65.90
2018-11-11T06:41:59.821Z,65.00
2018-11-11T06:42:59.820Z,57.30
2018-11-11T06:43:59.810Z,55.90
2018-11-11T06:44:59.815Z,52.00
2018-11-11T06:45:59.769Z,48.40
2018-11-11T06:46:59.771Z,45.00
2018-11-11T06:47:59.783Z,45.20
2018-11-11T06:48:59.769Z,44.60
2018-11-11T06:49:59.753Z,43.70
2018-11-11T06:50:59.717Z,52.10
2018-11-11T06:51:59.713Z,69.10
2018-11-11T06:52:59.713Z,74.60
2018-11-11T06:53:59.696Z,63.50
2018-11-11T06:54:59.755Z,48.90
2018-11-11T06:55:59.657Z,40.70
2018-11-11T06:56:59.648Z,38.80
2018-11-11T06:57:59.655Z,37.90
2018-11-11T06:58:59.637Z,39.90
2018-11-11T06:59:59.618Z,38.00
2018-11-11T07:00:59.662Z,41.20
2018-11-11T07:01:59.605Z,39.60
2018-11-11T07:02:59.591Z,43.10
2018-11-11T07:03:59.576Z,42.90
2018-11-11T07:04:59.569Z,45.50
2018-11-11T07:05:59.557Z,48.30
2018-11-11T07:06:59.542Z,47.90
2018-11-11T07:07:59.535Z,46.70
2018-11-11T07:08:59.524Z,47.90
2018-11-11T07:09:59.504Z,45.20
2018-11-11T07:10:59.512Z,46.00
2018-11-11T07:11:59.481Z,46.70
2018-11-11T07:12:59.473Z,42.60
2018-11-11T07:13:59.483Z,44.70
2018-11-11T07:14:59.450Z,48.00
2018-11-11T07:15:59.458Z,45.60
2018-11-11T07:16:59.435Z,48.20
2018-11-11T07:17:59.412Z,45.60
2018-11-11T07:18:59.409Z,47.00
2018-11-11T07:19:59.398Z,47.80
2018-11-11T07:20:59.398Z,48.70
2018-11-11T07:21:59.371Z,44.20
2018-11-11T07:22:59.357Z,42.70
2018-11-11T07:23:59.382Z,45.50
2018-11-11T07:24:59.336Z,43.10
2018-11-11T07:25:59.340Z,43.90
2018-11-11T07:26:59.327Z,41.20
2018-11-11T07:27:59.308Z,38.10
2018-11-11T07:28:59.294Z,36.80
2018-11-11T07:29:59.278Z,37.10
2018-11-11T07:30:59.295Z,38.10
2018-11-11T07:31:59.268Z,35.00
2018-11-11T07:32:59.244Z,34.70
2018-11-11T07:33:59.236Z,34.40
2018-11-11T07:34:59.237Z,34.30
2018-11-11T07:35:59.288Z,35.30
2018-11-11T07:36:59.223Z,33.50
2018-11-11T07:37:59.204Z,30.90
2018-11-11T07:38:59.179Z,30.70
2018-11-11T07:39:59.169Z,27.60
2018-11-11T07:40:59.161Z,27.80
2018-11-11T07:41:59.160Z,27.70
2018-11-11T07:42:59.138Z,28.30
2018-11-11T07:43:59.137Z,26.90
2018-11-11T07:44:59.113Z,26.60
2018-11-11T07:45:59.103Z,25.20
2018-11-11T07:46:59.114Z,26.00
2018-11-11T07:47:59.125Z,28.20
2018-11-11T07:48:59.069Z,27.40
2018-11-11T07:49:59.060Z,28.90
2018-11-11T07:50:59.049Z,28.60
2018-11-11T07:51:59.065Z,28.30
2018-11-11T07:52:59.022Z,27.30
2018-11-11T07:53:59.011Z,25.20
2018-11-11T07:54:59.074Z,26.60
2018-11-11T07:55:58.998Z,26.10
2018-11-11T07:56:59.082Z,26.60
2018-11-11T07:57:58.969Z,28.10
2018-11-11T07:58:58.991Z,28.30
2018-11-11T07:59:58.954Z,25.80
2018-11-11T08:00:58.937Z,26.60
2018-11-11T08:01:58.947Z,26.40
2018-11-11T08:02:58.924Z,26.20
2018-11-11T08:03:58.901Z,26.60
2018-11-11T08:04:58.890Z,26.90
2018-11-11T08:05:58.877Z,28.00
2018-11-11T08:06:58.870Z,25.20
2018-11-11T08:07:58.863Z,25.70
2018-11-11T08:08:58.843Z,26.50
2018-11-11T08:09:58.830Z,27.20
2018-11-11T08:10:58.862Z,25.10
2018-11-11T08:11:58.811Z,28.50
2018-11-11T08:12:58.820Z,24.20
2018-11-11T08:13:58.824Z,27.10
2018-11-11T08:14:58.781Z,28.30
2018-11-11T08:15:58.773Z,26.40
2018-11-11T08:16:58.752Z,27.10
2018-11-11T08:17:58.756Z,26.00
2018-11-11T08:18:58.741Z,26.00
2018-11-11T08:19:58.731Z,28.30
2018-11-11T08:20:58.714Z,27.40
2018-11-11T08:21:58.717Z,27.90
2018-11-11T08:22:58.695Z,29.60
2018-11-11T08:23:58.698Z,30.50
2018-11-11T08:24:58.678Z,28.80
2018-11-11T08:25:58.685Z,29.20
2018-11-11T08:26:58.650Z,26.20
2018-11-11T08:27:58.648Z,27.60
2018-11-11T08:28:58.646Z,25.50
2018-11-11T08:29:58.623Z,25.30
2018-11-11T08:30:58.605Z,25.30
2018-11-11T08:31:58.586Z,23.70
2018-11-11T08:32:58.575Z,22.50
2018-11-11T08:33:58.602Z,26.40
2018-11-11T08:34:58.558Z,28.60
2018-11-11T08:35:58.540Z,28.90
2018-11-11T08:36:58.529Z,24.20
2018-11-11T08:37:58.540Z,24.10
2018-11-11T08:38:58.538Z,23.80
2018-11-11T08:39:58.510Z,24.10
2018-11-11T08:40:58.487Z,24.40
2018-11-11T08:41:58.492Z,24.50
2018-11-11T08:42:58.476Z,25.00
2018-11-11T08:43:58.457Z,23.40
2018-11-11T08:44:58.456Z,23.70
2018-11-11T08:45:58.440Z,25.00
2018-11-11T08:46:58.422Z,23.40
2018-11-11T08:47:58.468Z,25.40
2018-11-11T08:48:58.410Z,22.10
2018-11-11T08:49:58.385Z,24.90
2018-11-11T08:50:58.391Z,24.70
2018-11-11T08:51:58.371Z,24.80
2018-11-11T08:52:58.372Z,24.40
2018-11-11T08:53:58.365Z,25.50
2018-11-11T08:54:58.339Z,25.40
2018-11-11T08:55:58.323Z,25.40
2018-11-11T08:56:58.310Z,24.90
2018-11-11T08:57:58.352Z,26.70
2018-11-11T08:58:58.291Z,25.30
2018-11-11T08:59:58.279Z,26.10
2018-11-11T09:00:58.268Z,25.10
2018-11-11T09:01:58.255Z,26.30
2018-11-11T09:02:58.257Z,26.60
2018-11-11T09:03:58.255Z,25.50
2018-11-11T09:04:58.261Z,25.60
2018-11-11T09:05:58.213Z,24.30
2018-11-11T09:06:58.204Z,23.30
2018-11-11T09:07:58.197Z,23.50
2018-11-11T09:08:58.194Z,24.70
2018-11-11T09:09:58.170Z,24.20
2018-11-11T09:10:58.162Z,25.00
2018-11-11T09:11:58.145Z,26.90
2018-11-11T09:12:58.136Z,22.20
2018-11-11T09:13:58.157Z,22.80
2018-11-11T09:14:58.107Z,22.60
2018-11-11T09:15:58.101Z,24.10
2018-11-11T09:16:58.097Z,21.10
2018-11-11T09:17:58.078Z,22.40
2018-11-11T09:18:58.082Z,23.90
2018-11-11T09:19:58.062Z,22.80
2018-11-11T09:20:58.044Z,22.00
2018-11-11T09:21:58.039Z,23.60
2018-11-11T09:22:58.027Z,22.60
2018-11-11T09:23:58.032Z,22.80
2018-11-11T09:24:58.014Z,20.90
2018-11-11T09:25:58.007Z,21.50
2018-11-11T09:26:57.973Z,23.80
2018-11-11T09:27:57.980Z,21.40
2018-11-11T09:28:58.010Z,23.50
2018-11-11T09:29:57.958Z,27.40
2018-11-11T09:30:57.944Z,22.90
2018-11-11T09:31:57.927Z,21.30
2018-11-11T09:32:57.908Z,32.20
2018-11-11T09:33:57.908Z,24.50
2018-11-11T09:34:57.929Z,21.60
2018-11-11T09:35:57.881Z,27.90
2018-11-11T09:36:57.888Z,30.60
2018-11-11T09:37:57.873Z,23.60
2018-11-11T09:38:57.849Z,22.30
2018-11-11T09:39:57.838Z,21.70
2018-11-11T09:40:57.827Z,26.10
2018-11-11T09:41:57.811Z,21.80
2018-11-11T09:42:57.814Z,23.40
2018-11-11T09:43:57.792Z,34.40
2018-11-11T09:44:57.781Z,31.60
2018-11-11T09:45:57.780Z,80.00
2018-11-11T09:46:57.748Z,63.50
2018-11-11T09:47:57.789Z,29.70
2018-11-11T09:48:57.742Z,25.10
2018-11-11T09:49:57.723Z,22.90
2018-11-11T09:50:57.718Z,26.90
2018-11-11T09:51:57.697Z,32.70
2018-11-11T09:52:57.681Z,28.00
2018-11-11T09:53:57.674Z,26.60
2018-11-11T09:54:57.663Z,25.50
2018-11-11T09:55:57.699Z,24.10
2018-11-11T09:56:57.636Z,28.80
2018-11-11T09:57:57.631Z,22.50
2018-11-11T09:58:57.641Z,23.30
2018-11-11T09:59:57.759Z,24.60
2018-11-11T10:00:57.607Z,26.30
2018-11-11T10:01:57.581Z,24.30
2018-11-11T10:02:57.571Z,22.70
2018-11-11T10:03:57.572Z,22.70
2018-11-11T10:04:57.615Z,22.20
2018-11-11T10:05:57.540Z,23.50
2018-11-11T10:06:57.600Z,23.80
2018-11-11T10:07:57.516Z,24.40
2018-11-11T10:08:57.516Z,23.40
2018-11-11T10:09:57.493Z,24.00
2018-11-11T10:10:57.481Z,23.40
2018-11-11T10:11:57.498Z,25.10
2018-11-11T10:12:57.465Z,25.20
2018-11-11T10:13:57.455Z,24.10
2018-11-11T10:14:57.445Z,24.20
2018-11-11T10:15:57.426Z,25.30
2018-11-11T10:16:57.424Z,24.90
2018-11-11T10:17:57.402Z,23.20
2018-11-11T10:18:57.409Z,23.80
2018-11-11T10:19:57.428Z,23.80
2018-11-11T10:20:57.521Z,24.40
2018-11-11T10:21:57.365Z,23.30
2018-11-11T10:22:57.342Z,24.50
2018-11-11T10:23:57.347Z,23.30
2018-11-11T10:24:57.328Z,22.70
2018-11-11T10:25:57.316Z,22.60
2018-11-11T10:26:57.299Z,23.60
2018-11-11T10:27:57.306Z,23.90
2018-11-11T10:28:57.286Z,23.70
2018-11-11T10:29:57.283Z,23.70
2018-11-11T10:30:57.260Z,24.00
2018-11-11T10:31:57.250Z,24.50
2018-11-11T10:32:57.234Z,24.10
2018-11-11T10:33:57.227Z,24.40
2018-11-11T10:34:57.221Z,24.30
2018-11-11T10:35:57.206Z,23.80
2018-11-11T10:36:57.192Z,24.50
2018-11-11T10:37:57.175Z,26.40
2018-11-11T10:38:57.221Z,23.20
2018-11-11T10:39:57.162Z,25.20
2018-11-11T10:40:57.168Z,23.40
2018-11-11T10:41:57.133Z,25.90
2018-11-11T10:42:57.131Z,25.50
2018-11-11T10:43:57.112Z,24.60
2018-11-11T10:44:57.103Z,23.80
2018-11-11T10:45:57.094Z,25.60
2018-11-11T10:46:57.086Z,25.10
2018-11-11T10:47:57.068Z,24.70
2018-11-11T10:48:57.052Z,23.60
2018-11-11T10:49:57.066Z,24.60
2018-11-11T10:50:57.038Z,25.20
2018-11-11T10:51:57.018Z,22.90
2018-11-11T10:52:57.021Z,23.70
2018-11-11T10:53:56.999Z,22.70
2018-11-11T10:54:56.994Z,25.30
2018-11-11T10:55:56.996Z,24.20
2018-11-11T10:56:56.966Z,25.00
2018-11-11T10:57:56.951Z,24.00
2018-11-11T10:58:56.944Z,24.70
2018-11-11T10:59:56.985Z,24.10
2018-11-11T11:00:56.939Z,25.00
2018-11-11T11:01:56.909Z,24.10
2018-11-11T11:02:56.899Z,23.70
2018-11-11T11:03:56.932Z,23.70
2018-11-11T11:04:56.910Z,23.80
2018-11-11T11:05:56.886Z,24.40
2018-11-11T11:06:56.854Z,24.30
2018-11-11T11:07:56.840Z,26.10
2018-11-11T11:08:56.863Z,24.90
2018-11-11T11:09:56.819Z,23.80
2018-11-11T11:10:56.804Z,24.40
2018-11-11T11:11:56.799Z,23.90
2018-11-11T11:12:56.783Z,24.30
2018-11-11T11:13:56.852Z,24.20
2018-11-11T11:14:56.761Z,23.30
2018-11-11T11:15:56.749Z,22.80
2018-11-11T11:16:56.730Z,24.00
2018-11-11T11:17:56.736Z,23.30
2018-11-11T11:18:56.743Z,23.60
2018-11-11T11:19:56.720Z,24.20
2018-11-11T11:20:56.693Z,23.90
2018-11-11T11:21:56.695Z,23.40
2018-11-11T11:22:56.763Z,23.20
2018-11-11T11:23:56.656Z,23.20
2018-11-11T11:24:56.665Z,23.30
2018-11-11T11:25:56.645Z,23.50
2018-11-11T11:26:56.615Z,23.00
2018-11-11T11:27:56.652Z,22.80
2018-11-11T11:28:56.605Z,23.10
2018-11-11T11:29:56.583Z,22.90
2018-11-11T11:30:56.584Z,22.50
2018-11-11T11:31:56.618Z,23.30
2018-11-11T11:32:56.550Z,22.80
2018-11-11T11:33:56.554Z,24.10
2018-11-11T11:34:56.532Z,24.60
2018-11-11T11:35:56.537Z,22.80
2018-11-11T11:36:56.507Z,23.10
2018-11-11T11:37:56.493Z,22.00
2018-11-11T11:38:56.480Z,24.00
2018-11-11T11:39:56.468Z,22.30
2018-11-11T11:40:56.471Z,24.40
2018-11-11T11:41:56.451Z,23.50
2018-11-11T11:42:56.469Z,23.70
2018-11-11T11:43:56.468Z,23.40
2018-11-11T11:44:56.420Z,24.50
2018-11-11T11:45:56.410Z,25.20
2018-11-11T11:46:56.430Z,25.70
2018-11-11T11:47:56.388Z,24.90
2018-11-11T11:48:56.379Z,23.40
2018-11-11T11:49:56.367Z,23.00
2018-11-11T11:50:56.367Z,22.50
2018-11-11T11:51:56.373Z,22.00
2018-11-11T11:52:56.431Z,21.60
2018-11-11T11:53:56.312Z,22.20
2018-11-11T11:54:56.315Z,23.20
2018-11-11T11:55:56.297Z,21.20
2018-11-11T11:56:56.293Z,21.50
2018-11-11T11:57:56.330Z,21.80
2018-11-11T11:58:56.258Z,21.30
2018-11-11T11:59:56.249Z,21.70
2018-11-11T12:00:56.249Z,21.90
2018-11-11T12:01:56.245Z,20.80
2018-11-11T12:02:56.211Z,22.30
2018-11-11T12:03:56.228Z,21.10
2018-11-11T12:04:56.193Z,20.30
2018-11-11T12:05:56.185Z,20.70
2018-11-11T12:06:56.185Z,20.80
2018-11-11T12:07:56.149Z,21.50
2018-11-11T12:08:56.200Z,21.40
2018-11-11T12:09:56.135Z,20.30
2018-11-11T12:10:56.118Z,21.00
2018-11-11T12:11:56.130Z,21.70
2018-11-11T12:12:56.095Z,20.90
2018-11-11T12:13:56.086Z,20.50
2018-11-11T12:14:56.071Z,20.30
2018-11-11T12:15:56.058Z,20.50
2018-11-11T12:16:56.067Z,20.20
2018-11-11T12:17:56.052Z,19.70
2018-11-11T12:18:56.027Z,19.80
2018-11-11T12:19:56.011Z,20.10
2018-11-11T12:20:56.004Z,20.00
2018-11-11T12:21:56.014Z,20.00
2018-11-11T12:22:55.992Z,19.80
2018-11-11T12:23:56.936Z,20.70
2018-11-11T12:24:55.961Z,19.70
2018-11-11T12:25:55.996Z,19.30
2018-11-11T12:26:55.941Z,19.60
2018-11-11T12:27:55.994Z,18.90
2018-11-11T12:28:55.909Z,19.40
2018-11-11T12:29:55.911Z,19.60
2018-11-11T12:30:55.974Z,19.00
2018-11-11T12:31:55.883Z,19.20
2018-11-11T12:32:55.872Z,19.30
2018-11-11T12:33:55.856Z,20.00
2018-11-11T12:34:55.860Z,20.40
2018-11-11T12:35:55.843Z,21.20
2018-11-11T12:36:55.831Z,21.10
2018-11-11T12:37:55.825Z,22.40
2018-11-11T12:38:55.833Z,22.00
2018-11-11T12:39:55.959Z,22.40
2018-11-11T12:40:55.777Z,22.80
2018-11-11T12:41:55.773Z,22.60
2018-11-11T12:42:55.785Z,22.30
2018-11-11T12:43:55.748Z,23.40
2018-11-11T12:44:55.841Z,22.30
2018-11-11T12:45:55.715Z,23.20
2018-11-11T12:46:55.838Z,22.70
2018-11-11T12:47:55.710Z,23.10
2018-11-11T12:48:55.694Z,24.50
2018-11-11T12:49:55.675Z,24.60